Aviation Digital Data Service (ADDS)

Output produced by METARs form (0213 UTC 19 February 2019)
found at http://www.aviationweather.gov/metar/data/
 
TAF LECO 182000Z 1821/1921 VRB03KT 9999 SCT020 TX13/1915Z TN03/1907Z 
     PROB30 
     TEMPO 1821/1823 RA SHRA SCT030TCU 
     TEMPO 1900/1910 1500 BCFG 
     PROB40 
     TEMPO 1900/1909 0350 FG BKN001 
     PROB40 
     TEMPO 1900/1909 0100 FG VV001 
     BECMG 1912/1914 01010KT 
     BECMG 1918/1920 20005KT
       
TAF LEAB 182300Z 1900/1909 VRB05KT CAVOK 
     PROB40 
     TEMPO 1900/1909 3000 BR BKN006 
     PROB30 
     TEMPO 1900/1909 0200 FG VV001
       
TAF LEAL 182300Z 1900/1924 32008KT 9999 FEW020 TX17/1912Z TN06/1907Z 
     BECMG 1910/1912 08012KT 
     BECMG 1918/1921 32006KT
       
TAF LEAM 182000Z 1821/1921 34006KT CAVOK TX19/1915Z TN09/1907Z 
     BECMG 1909/1911 05012KT 
     BECMG 1919/1921 34006KT
       
TAF LEAS 182000Z 1821/1921 19005KT 9999 SCT030 BKN055 TX12/1914Z TN07/1906Z 
     PROB30 
     TEMPO 1821/1904 3000 -RA BR BKN010 
     BECMG 1910/1912 08010KT
       
TAF LEMD 182300Z 1900/2006 VRB05KT CAVOK TX15/1916Z TNM01/1906Z
       
TAF LEBL 182300Z 1900/1924 33006KT 9999 FEW020 TX15/1912Z TN06/1907Z 
     PROB30 
     TEMPO 1900/1908 BKN014 
     TEMPO 1903/1909 33010G20KT 
     BECMG 1910/1912 10008KT 
     BECMG 1920/1922 34006KT
       
TAF LEBB 182300Z 1900/1924 32010KT 9999 FEW015 TX15/1914Z TN08/1906Z 
     TEMPO 1900/1912 3000 -RADZ BR BKN010 
     PROB40 
     TEMPO 1904/1910 1500 RADZ BKN005 
     TEMPO 1909/1924 06008KT
       
TAF AMD LEBG 181816Z 1818/1903 04010KT CAVOK 
     PROB30 
     TEMPO 1818/1824 RA BKN040 
     PROB40 
     TEMPO 1823/1903 3000 BR BKN004 
     PROB30 
     TEMPO 1900/1903 0200 FG VV001
       
TAF LEVS 181700Z 1818/1903 VRB05KT CAVOK
       
TAF GCFV 182000Z 1821/1921 35012KT 9999 BKN030 TX20/1914Z TN14/1906Z 
     PROB30 
     TEMPO 1821/1823 01022KT 
     PROB30 
     TEMPO 1909/1918 03015G25KT
       
TAF LEGT 181700Z 1818/1903 VRB05KT CAVOK
       
TAF LEGE 182300Z 1900/1924 VRB03KT 9999 FEW015 TX18/1913Z TN06/1907Z 
     TEMPO 1900/1907 4000 BR BKN010 
     PROB40 
     TEMPO 1900/1906 0500 FG VV002 
     TEMPO 1914/1918 17010KT
       
TAF GCLP 182000Z 1821/1921 01020KT 9999 BKN025 TX20/1914Z TN15/1906Z 
     PROB40 
     TEMPO 1821/1823 01018G28KT 
     BECMG 1919/1921 30010KT 
     PROB30 
     TEMPO 1912/1918 01015G25KT
       
TAF LEGR 182000Z 1821/1921 VRB02KT CAVOK TX19/1914Z TN03/1907Z
       
TAF GCHI 182000Z 1821/1921 02015KT 9999 BKN020 TX20/1914Z TN16/1906Z 
     PROB30 
     TEMPO 1908/1918 08012KT
       
TAF LEIB 182000Z 1821/1921 06008KT 9999 FEW012 TX16/1912Z TN07/1907Z 
     PROB30 
     TEMPO 1821/1907 0500 FG VV002 
     TEMPO 1909/1917 06012G22KT
       
TAF LEJR 182300Z 1900/1924 16005KT CAVOK TX19/1914Z TN07/1906Z
       
TAF GCGM 182000Z 1821/1921 VRB18KT 9999 SCT025 TX21/1914Z TN13/1906Z 
     PROB30 
     TEMPO 1821/1902 VRB15G25KT 
     BECMG 1904/1906 35008KT
       
TAF AMD GCLA 182334Z 1823/1921 36011KT 9999 BKN020 TX20/1914Z TN15/1906Z 
     BECMG 1910/1912 06010KT 
     BECMG 1919/1921 30011KT
       
TAF GCRR 182000Z 1821/1921 01015KT 9999 BKN030 TX20/1914Z TN13/1906Z
       
TAF LELN 181700Z 1818/1903 VRB04KT 9999 BKN035 
     PROB40 
     TEMPO 1818/1903 RA BKN012
       
TAF LEMG 182300Z 1900/1924 31005KT 9999 FEW020 TX18/1913Z TN09/1907Z 
     BECMG 1910/1912 14006KT 
     BECMG 1920/1922 30005KT
       
TAF GEML 182000Z 1821/1921 28004KT 9999 FEW008 TX20/1913Z TN10/1907Z 
     TEMPO 1904/1911 BKN008 
     BECMG 1906/1908 06010KT
       
TAF LEMH 182000Z 1821/1921 10008KT 9999 SCT015 TX16/1912Z TN06/1907Z 
     BECMG 1904/1906 08009KT
       
TAF LEMO 182300Z 1900/1909 VRB02KT CAVOK
       
TAF LEPP 182000Z 1821/1921 VRB04KT CAVOK TX15/1914Z TN01/1906Z 
     PROB40 
     TEMPO 1903/1907 0800 BCFG
       
TAF LERS 182000Z 1821/1921 01005KT 9999 FEW010 SCT020 TX16/1913Z TN04/1907Z 
     TEMPO 1821/1906 BKN010 
     PROB30 
     TEMPO 1821/1907 4000 BR BKN010 
     TEMPO 1912/1916 14007KT
       
TAF LERT 182300Z 1900/1909 12008KT 9999 FEW040
       
TAF LESA 182300Z 1900/1924 VRB05KT CAVOK TX13/1915Z TNM01/1906Z 
     PROB40 
     TEMPO 1900/1910 3000 BR BKN006 
     PROB30 
     TEMPO 1904/1910 0100 FG VV001
       
TAF LESO 182300Z 1900/1924 VRB03KT 8000 SCT020 TX15/1914Z TN07/1904Z 
     PROB40 
     TEMPO 1900/1909 3000 BR BKN010 
     BECMG 1908/1912 02010KT
       
TAF LEXJ 182000Z 1821/1921 30009KT 9999 SCT010 SCT025 TX15/1914Z TN07/1907Z 
     TEMPO 1821/1912 3000 -RADZ BR BKN010 
     BECMG 1910/1912 07010KT
       
TAF LEST 182300Z 1900/1924 06005KT 9999 FEW020 TX12/1914Z TN03/1907Z 
     PROB40 
     TEMPO 1900/1909 0800 BCFG BKN005 
     PROB40 
     TEMPO 1900/1908 0350 FG VV001
       
TAF LEZL 182000Z 1821/1921 04004KT CAVOK TX21/1915Z TN07/1907Z
       
TAF LEBZ 182300Z 1900/1924 VRB02KT CAVOK TX17/1915Z TN05/1906Z 
     TEMPO 1900/1911 3000 BR 
     PROB40 
     TEMPO 1902/1910 0300 FG VV001
       
TAF GCXO 182000Z 1821/1921 34012KT 9999 BKN010 TX15/1914Z TN09/1906Z 
     PROB30 
     TEMPO 1914/1921 32018G28KT
       
TAF GCTS 182000Z 1821/1921 04016KT 9999 SCT030 TX21/1914Z TN13/1906Z 
     PROB30 
     TEMPO 1904/1911 05006KT 
     PROB40 
     TEMPO 1911/1921 08016G26KT
       
TAF LETO 182300Z 1900/1924 VRB05KT CAVOK TX15/1916Z TN00/1906Z
       
TAF LEVC 182300Z 1900/1924 VRB03KT 9999 FEW020 TX17/1913Z TN03/1907Z 
     PROB30 
     TEMPO 1900/1906 4000 BR BKN010 
     TEMPO 1912/1918 09010KT
       
TAF LEVD 182300Z 1900/1924 VRB05KT CAVOK TX13/1915Z TN00/1906Z 
     PROB40 
     TEMPO 1903/1910 3000 BR BKN006 
     PROB30 
     TEMPO 1904/1910 0100 FG VV001
       
TAF LEVX 182300Z 1900/1924 02005KT 9999 FEW030 TX13/1915Z TN05/1907Z 
     PROB40 1914/1920 28010KT
       
TAF LEVT 182300Z 1900/1924 VRB05KT 9999 SCT050 TX14/1915Z TN02/1907Z 
     TEMPO 1900/1912 02010KT 3000 -RA BR BKN010 
     PROB40 
     TEMPO 1900/1912 1500 BCFG BKN004
       
TAF LEZG 182300Z 1900/1924 VRB04KT 9999 FEW040 TX16/1915Z TN04/1907Z 
     TEMPO 1900/1909 2000 BR BKN010 
     PROB30 
     TEMPO 1903/1908 0500 FG VV002 
     TEMPO 1914/1920 11010KT